createdAt,value
2023-03-04T00:38:13.079Z,2.60
2023-03-04T00:50:32.012Z,2.00
2023-03-04T01:42:24.691Z,2.50
2023-03-04T01:47:24.151Z,2.60
2023-03-04T01:49:55.121Z,2.60
2023-03-04T01:57:22.004Z,2.70
2023-03-04T02:00:19.315Z,2.70
2023-03-04T02:02:49.803Z,2.70
2023-03-04T02:20:24.373Z,2.80
2023-03-04T02:23:04.772Z,2.80
2023-03-04T02:25:39.564Z,2.80
2023-03-04T02:40:34.463Z,2.90
2023-03-04T02:45:39.882Z,2.90
2023-03-04T02:48:09.757Z,5.30
2023-03-04T02:50:42.117Z,2.90
2023-03-04T03:05:32.446Z,3.00
2023-03-04T03:30:15.576Z,3.00
2023-03-04T04:41:44.267Z,3.00
2023-03-04T04:44:12.257Z,3.00
2023-03-04T04:49:08.678Z,3.00
2023-03-04T04:51:38.515Z,3.00
2023-03-04T04:59:04.911Z,3.10
2023-03-04T05:23:44.151Z,3.10
2023-03-04T05:26:15.033Z,3.10
2023-03-04T05:36:07.750Z,3.10
2023-03-04T05:41:08.150Z,3.10
2023-03-04T05:43:36.884Z,3.10
2023-03-04T05:51:01.937Z,3.10
2023-03-04T06:01:01.091Z,3.10
2023-03-04T06:10:54.762Z,3.20
2023-03-04T06:15:55.055Z,3.20
2023-03-04T07:07:42.189Z,3.60
2023-03-04T07:10:10.692Z,3.60
2023-03-04T07:29:54.619Z,4.10
2023-03-04T07:37:18.250Z,4.20
2023-03-04T08:26:43.351Z,3.90
2023-03-04T08:29:21.704Z,3.90
2023-03-04T08:31:50.629Z,3.90
2023-03-04T08:34:20.065Z,4.00
2023-03-04T08:39:18.137Z,4.00
2023-03-04T08:46:43.730Z,3.90
2023-03-04T08:49:13.126Z,4.00
2023-03-04T09:26:22.693Z,4.00
2023-03-04T09:28:52.806Z,3.90
2023-03-04T09:41:27.042Z,3.90
2023-03-04T09:46:39.564Z,3.70
2023-03-04T09:52:01.757Z,3.70
2023-03-04T09:55:08.122Z,3.80
2023-03-04T09:57:57.537Z,4.00
2023-03-04T10:00:34.269Z,4.10
2023-03-04T10:03:10.480Z,4.00
2023-03-04T10:05:49.355Z,4.00
2023-03-04T10:08:32.264Z,4.00
2023-03-04T10:11:01.973Z,3.90
2023-03-04T10:13:45.313Z,4.00
2023-03-04T10:16:21.748Z,4.00
2023-03-04T10:18:59.458Z,4.10
2023-03-04T10:21:41.159Z,4.10
2023-03-04T10:24:21.723Z,3.90
2023-03-04T10:26:55.070Z,4.30
2023-03-04T10:29:24.770Z,4.40
2023-03-04T10:31:57.245Z,5.00
2023-03-04T10:36:57.100Z,4.90
2023-03-04T10:39:34.008Z,5.20
2023-03-04T10:42:03.752Z,5.60
2023-03-04T10:44:35.692Z,5.60
2023-03-04T10:47:11.576Z,5.80
2023-03-04T10:50:00.146Z,5.70
2023-03-04T10:52:47.177Z,5.90
2023-03-04T10:55:22.575Z,5.90
2023-03-04T10:58:16.402Z,6.10
2023-03-04T11:03:31.707Z,6.40
2023-03-04T11:06:14.356Z,6.50
2023-03-04T11:11:45.243Z,7.00
2023-03-04T11:14:25.480Z,6.80
2023-03-04T11:16:59.213Z,7.00
2023-03-04T11:19:37.676Z,7.00
2023-03-04T11:22:05.994Z,7.10
2023-03-04T11:24:37.194Z,7.10
2023-03-04T11:27:18.653Z,6.80
2023-03-04T11:30:20.516Z,6.60
2023-03-04T11:32:54.199Z,6.50
2023-03-04T11:35:33.637Z,7.20
2023-03-04T11:38:18.536Z,6.70
2023-03-04T11:40:54.146Z,6.60
2023-03-04T11:43:31.477Z,6.60
2023-03-04T11:48:54.583Z,6.90
2023-03-04T11:51:50.026Z,6.80
2023-03-04T11:54:30.191Z,7.00
2023-03-04T11:57:06.260Z,6.70
2023-03-04T11:59:45.887Z,6.70
2023-03-04T12:02:30.466Z,6.60
2023-03-04T12:05:19.768Z,6.80
2023-03-04T12:08:07.687Z,7.10
2023-03-04T12:10:58.639Z,7.40
2023-03-04T12:13:45.741Z,7.80
2023-03-04T12:16:38.856Z,7.90
2023-03-04T12:24:18.250Z,8.00
2023-03-04T12:27:12.024Z,7.80
2023-03-04T12:29:45.788Z,7.90
2023-03-04T12:32:44.250Z,8.20
2023-03-04T12:35:39.938Z,8.30
2023-03-04T12:38:35.177Z,8.20
2023-03-04T12:41:28.506Z,8.10
2023-03-04T12:43:59.050Z,9.80
2023-03-04T12:46:38.679Z,11.60
2023-03-04T12:49:25.211Z,13.10
2023-03-04T12:51:52.974Z,13.50
2023-03-04T12:54:45.976Z,12.90
2023-03-04T12:57:18.097Z,12.00
2023-03-04T13:00:09.375Z,11.20
2023-03-04T13:02:55.264Z,10.80
2023-03-04T13:05:50.890Z,10.50
2023-03-04T13:08:40.163Z,11.40
2023-03-04T13:11:26.930Z,12.00
2023-03-04T13:14:04.792Z,12.90
2023-03-04T13:16:46.614Z,13.50
2023-03-04T13:20:05.710Z,13.90
2023-03-04T13:22:34.355Z,14.60
2023-03-04T13:25:37.853Z,15.10
2023-03-04T13:28:11.948Z,14.90
2023-03-04T13:30:41.281Z,14.90
2023-03-04T13:33:14.237Z,15.10
2023-03-04T13:36:01.382Z,15.00
2023-03-04T13:38:33.969Z,15.10
2023-03-04T13:41:09.009Z,15.10
2023-03-04T13:43:45.013Z,14.30
2023-03-04T13:46:20.965Z,14.70
2023-03-04T13:48:51.883Z,14.30
2023-03-04T13:51:42.455Z,13.50
2023-03-04T13:54:16.134Z,13.40
2023-03-04T13:56:50.505Z,14.40
2023-03-04T14:02:15.595Z,14.00
2023-03-04T14:04:46.416Z,14.00
2023-03-04T14:07:35.544Z,13.60
2023-03-04T14:10:12.721Z,12.40
2023-03-04T14:12:52.080Z,13.00
2023-03-04T14:15:29.127Z,12.30
2023-03-04T14:18:02.827Z,11.70
2023-03-04T14:20:37.553Z,10.50
2023-03-04T14:23:29.113Z,10.10
2023-03-04T14:26:15.720Z,9.50
2023-03-04T14:28:49.676Z,8.20
2023-03-04T14:31:20.545Z,9.00
2023-03-04T14:33:51.603Z,8.60
2023-03-04T14:36:22.302Z,8.50
2023-03-04T14:38:59.131Z,8.40
2023-03-04T14:41:39.240Z,7.30
2023-03-04T14:44:12.411Z,7.80
2023-03-04T14:47:06.025Z,6.70
2023-03-04T14:49:37.871Z,6.50
2023-03-04T14:57:30.018Z,5.90
2023-03-04T15:03:02.748Z,5.70
2023-03-04T15:05:33.808Z,5.40
2023-03-04T15:08:18.820Z,5.40
2023-03-04T15:13:42.042Z,5.20
2023-03-04T15:18:39.122Z,4.80
2023-03-04T15:21:37.856Z,5.30
2023-03-04T15:24:09.003Z,5.40
2023-03-04T15:26:41.378Z,4.90
2023-03-04T15:29:17.820Z,4.80
2023-03-04T15:31:50.202Z,4.60
2023-03-04T15:34:20.550Z,4.50
2023-03-04T15:36:50.996Z,4.40
2023-03-04T15:39:20.050Z,4.40
2023-03-04T15:41:49.222Z,4.30
2023-03-04T15:44:16.684Z,4.10
2023-03-04T15:46:44.604Z,4.00
2023-03-04T15:49:12.350Z,4.00
2023-03-04T15:51:40.346Z,4.00
2023-03-04T15:54:14.589Z,4.10
2023-03-04T15:56:43.405Z,4.90
2023-03-04T15:59:13.839Z,4.10
2023-03-04T16:01:42.315Z,4.20
2023-03-04T16:04:17.493Z,4.20
2023-03-04T16:06:47.812Z,3.80
2023-03-04T16:09:19.848Z,3.90
2023-03-04T16:24:19.245Z,3.20
2023-03-04T16:39:20.042Z,2.80
2023-03-04T16:51:48.632Z,2.70
2023-03-04T16:54:22.636Z,2.60
2023-03-04T16:56:50.560Z,2.60
2023-03-04T16:59:18.445Z,2.60
2023-03-04T17:01:46.386Z,2.50
2023-03-04T17:04:14.090Z,2.60
2023-03-04T17:06:41.884Z,2.60
2023-03-04T17:09:09.856Z,2.50
2023-03-04T17:11:38.281Z,2.50
2023-03-04T17:14:05.699Z,2.40
2023-03-04T17:16:33.525Z,2.40
2023-03-04T17:19:01.067Z,2.40
2023-03-04T17:21:28.768Z,2.30
2023-03-04T17:23:56.214Z,2.30
2023-03-04T17:26:23.897Z,2.20
2023-03-04T17:28:51.775Z,2.30
2023-03-04T17:31:20.823Z,2.30
2023-03-04T17:33:48.961Z,2.20
2023-03-04T17:36:20.781Z,2.00
2023-03-04T17:43:51.476Z,1.80
2023-03-04T17:46:21.990Z,1.70
2023-03-04T17:53:46.548Z,1.80
2023-03-04T18:01:20.425Z,1.30
2023-03-04T18:08:45.778Z,1.20
2023-03-04T18:11:13.421Z,1.20
2023-03-04T18:13:42.272Z,1.10
2023-03-04T18:16:12.072Z,0.90
2023-03-04T18:21:07.884Z,1.00
2023-03-04T18:23:35.936Z,1.50
2023-03-04T18:26:04.632Z,0.90
2023-03-04T18:28:32.496Z,0.90
2023-03-04T18:31:01.198Z,0.70
2023-03-04T18:33:29.885Z,1.00
2023-03-04T18:35:59.763Z,0.60
2023-03-04T18:41:07.207Z,0.50
2023-03-04T18:48:34.544Z,0.40
2023-03-04T18:51:02.723Z,0.00
2023-03-04T18:56:09.897Z,0.30
2023-03-04T18:58:40.150Z,0.10
2023-03-04T19:01:12.199Z,0.00
2023-03-04T19:03:41.829Z,-0.10
2023-03-04T19:13:34.821Z,-0.30
2023-03-04T19:16:02.866Z,-0.40
2023-03-04T19:21:01.218Z,-0.60
2023-03-04T19:28:28.067Z,-0.60
2023-03-04T19:45:55.651Z,-1.10
2023-03-04T19:48:24.383Z,-1.30
2023-03-04T19:53:20.565Z,-1.30
2023-03-04T19:55:53.776Z,-1.80
2023-03-04T20:05:48.411Z,-1.30
2023-03-04T20:15:43.301Z,-1.40
2023-03-04T20:25:37.235Z,-1.80
2023-03-04T21:00:17.377Z,-1.00
2023-03-04T21:15:07.518Z,-2.20
2023-03-04T21:22:32.352Z,-2.40
2023-03-04T21:32:27.122Z,-2.30
2023-03-04T21:37:25.553Z,-2.30
2023-03-04T21:39:54.588Z,-2.30
2023-03-04T21:47:21.070Z,-2.30
2023-03-04T21:52:18.518Z,-2.40
2023-03-04T21:57:16.298Z,-2.40
2023-03-04T22:02:18.280Z,-2.40
2023-03-04T22:36:56.199Z,-2.60
2023-03-04T22:51:44.954Z,-2.90
2023-03-04T22:54:17.129Z,-3.00
2023-03-04T23:11:36.201Z,-3.00
2023-03-04T23:16:39.600Z,-3.00
2023-03-04T23:21:37.849Z,-3.00
2023-03-04T23:24:07.533Z,-3.10
2023-03-04T23:36:35.612Z,-3.30
